sensor_id;sensor_type;location;lat;lon;timestamp;P1;durP1;ratioP1;P2;durP2;ratioP2
45043;SDS011;30784;48.490;9.688;2023-07-09T00:01:16;8.50;;;3.50;;
45043;SDS011;30784;48.490;9.688;2023-07-09T00:03:43;7.05;;;3.00;;
45043;SDS011;30784;48.490;9.688;2023-07-09T00:06:19;6.03;;;2.42;;
45043;SDS011;30784;48.490;9.688;2023-07-09T00:08:45;11.07;;;6.20;;
45043;SDS011;30784;48.490;9.688;2023-07-09T00:11:13;10.25;;;5.95;;
45043;SDS011;30784;48.490;9.688;2023-07-09T00:13:39;7.90;;;3.88;;
45043;SDS011;30784;48.490;9.688;2023-07-09T00:16:09;8.38;;;3.10;;
45043;SDS011;30784;48.490;9.688;2023-07-09T00:18:38;7.18;;;2.78;;
45043;SDS011;30784;48.490;9.688;2023-07-09T00:21:03;7.65;;;2.95;;
45043;SDS011;30784;48.490;9.688;2023-07-09T00:23:29;6.88;;;2.80;;
45043;SDS011;30784;48.490;9.688;2023-07-09T00:25:54;6.80;;;2.72;;
45043;SDS011;30784;48.490;9.688;2023-07-09T00:28:20;6.70;;;2.75;;
45043;SDS011;30784;48.490;9.688;2023-07-09T00:30:46;7.57;;;2.80;;
45043;SDS011;30784;48.490;9.688;2023-07-09T00:33:13;6.45;;;2.80;;
45043;SDS011;30784;48.490;9.688;2023-07-09T00:35:43;7.80;;;2.80;;
45043;SDS011;30784;48.490;9.688;2023-07-09T00:38:15;6.68;;;2.70;;
45043;SDS011;30784;48.490;9.688;2023-07-09T00:40:46;7.78;;;3.00;;
45043;SDS011;30784;48.490;9.688;2023-07-09T00:43:21;8.20;;;3.08;;
45043;SDS011;30784;48.490;9.688;2023-07-09T00:46:10;7.10;;;3.13;;
45043;SDS011;30784;48.490;9.688;2023-07-09T00:48:42;7.28;;;2.85;;
45043;SDS011;30784;48.490;9.688;2023-07-09T00:51:10;14.80;;;9.00;;
45043;SDS011;30784;48.490;9.688;2023-07-09T00:53:38;15.82;;;10.57;;
45043;SDS011;30784;48.490;9.688;2023-07-09T00:56:10;10.73;;;5.95;;
45043;SDS011;30784;48.490;9.688;2023-07-09T00:58:39;9.88;;;5.28;;
45043;SDS011;30784;48.490;9.688;2023-07-09T01:01:09;9.63;;;4.90;;
45043;SDS011;30784;48.490;9.688;2023-07-09T01:03:48;10.10;;;4.60;;
45043;SDS011;30784;48.490;9.688;2023-07-09T01:06:24;10.27;;;3.88;;
45043;SDS011;30784;48.490;9.688;2023-07-09T01:09:03;10.70;;;3.83;;
45043;SDS011;30784;48.490;9.688;2023-07-09T01:11:29;8.07;;;3.17;;
45043;SDS011;30784;48.490;9.688;2023-07-09T01:13:55;8.63;;;4.30;;
45043;SDS011;30784;48.490;9.688;2023-07-09T01:16:25;14.27;;;9.75;;
45043;SDS011;30784;48.490;9.688;2023-07-09T01:18:54;10.02;;;4.97;;
45043;SDS011;30784;48.490;9.688;2023-07-09T01:21:20;8.07;;;3.60;;
45043;SDS011;30784;48.490;9.688;2023-07-09T01:23:46;7.25;;;3.22;;
45043;SDS011;30784;48.490;9.688;2023-07-09T01:26:17;6.68;;;2.70;;
45043;SDS011;30784;48.490;9.688;2023-07-09T01:28:44;8.10;;;3.00;;
45043;SDS011;30784;48.490;9.688;2023-07-09T01:31:11;7.13;;;2.70;;
45043;SDS011;30784;48.490;9.688;2023-07-09T01:33:39;6.28;;;2.42;;
45043;SDS011;30784;48.490;9.688;2023-07-09T01:36:05;6.80;;;2.40;;
45043;SDS011;30784;48.490;9.688;2023-07-09T01:38:32;7.30;;;2.63;;
45043;SDS011;30784;48.490;9.688;2023-07-09T01:40:58;6.75;;;2.65;;
45043;SDS011;30784;48.490;9.688;2023-07-09T01:43:25;7.32;;;3.00;;
45043;SDS011;30784;48.490;9.688;2023-07-09T01:45:51;7.57;;;2.83;;
45043;SDS011;30784;48.490;9.688;2023-07-09T01:48:17;8.25;;;2.45;;
45043;SDS011;30784;48.490;9.688;2023-07-09T01:50:45;7.07;;;2.47;;
45043;SDS011;30784;48.490;9.688;2023-07-09T01:53:14;8.02;;;2.40;;
45043;SDS011;30784;48.490;9.688;2023-07-09T01:55:42;6.75;;;2.45;;
45043;SDS011;30784;48.490;9.688;2023-07-09T01:58:08;6.88;;;2.47;;
45043;SDS011;30784;48.490;9.688;2023-07-09T02:00:34;6.38;;;2.40;;
45043;SDS011;30784;48.490;9.688;2023-07-09T02:03:00;7.05;;;2.58;;
45043;SDS011;30784;48.490;9.688;2023-07-09T02:05:27;7.05;;;2.28;;
45043;SDS011;30784;48.490;9.688;2023-07-09T02:07:55;7.80;;;2.25;;
45043;SDS011;30784;48.490;9.688;2023-07-09T02:10:20;5.97;;;2.20;;
45043;SDS011;30784;48.490;9.688;2023-07-09T02:12:46;6.40;;;2.30;;
45043;SDS011;30784;48.490;9.688;2023-07-09T02:15:12;5.90;;;2.20;;
45043;SDS011;30784;48.490;9.688;2023-07-09T02:17:38;6.15;;;2.20;;
45043;SDS011;30784;48.490;9.688;2023-07-09T02:20:04;6.15;;;2.28;;
45043;SDS011;30784;48.490;9.688;2023-07-09T02:22:32;5.57;;;2.17;;
45043;SDS011;30784;48.490;9.688;2023-07-09T02:25:02;7.20;;;2.20;;
45043;SDS011;30784;48.490;9.688;2023-07-09T02:27:28;5.82;;;2.25;;
45043;SDS011;30784;48.490;9.688;2023-07-09T02:29:54;6.07;;;2.40;;
45043;SDS011;30784;48.490;9.688;2023-07-09T02:32:23;7.13;;;2.50;;
45043;SDS011;30784;48.490;9.688;2023-07-09T02:34:51;6.43;;;2.25;;
45043;SDS011;30784;48.490;9.688;2023-07-09T02:37:18;5.90;;;2.28;;
45043;SDS011;30784;48.490;9.688;2023-07-09T02:39:48;6.82;;;2.72;;
45043;SDS011;30784;48.490;9.688;2023-07-09T02:42:16;7.38;;;2.50;;
45043;SDS011;30784;48.490;9.688;2023-07-09T02:44:43;7.03;;;2.42;;
45043;SDS011;30784;48.490;9.688;2023-07-09T02:47:09;7.32;;;2.67;;
45043;SDS011;30784;48.490;9.688;2023-07-09T02:49:36;6.72;;;2.55;;
45043;SDS011;30784;48.490;9.688;2023-07-09T02:52:02;7.03;;;2.50;;
45043;SDS011;30784;48.490;9.688;2023-07-09T02:54:28;6.75;;;2.33;;
45043;SDS011;30784;48.490;9.688;2023-07-09T02:56:53;7.22;;;2.50;;
45043;SDS011;30784;48.490;9.688;2023-07-09T02:59:19;6.15;;;2.20;;
45043;SDS011;30784;48.490;9.688;2023-07-09T03:01:44;6.35;;;2.25;;
45043;SDS011;30784;48.490;9.688;2023-07-09T03:04:11;7.15;;;2.20;;
45043;SDS011;30784;48.490;9.688;2023-07-09T03:06:37;7.75;;;2.50;;
45043;SDS011;30784;48.490;9.688;2023-07-09T03:09:03;6.45;;;2.30;;
45043;SDS011;30784;48.490;9.688;2023-07-09T03:11:30;5.65;;;2.05;;
45043;SDS011;30784;48.490;9.688;2023-07-09T03:13:57;6.82;;;2.45;;
45043;SDS011;30784;48.490;9.688;2023-07-09T03:16:23;7.05;;;2.25;;
45043;SDS011;30784;48.490;9.688;2023-07-09T03:18:51;5.45;;;2.08;;
45043;SDS011;30784;48.490;9.688;2023-07-09T03:21:17;5.80;;;2.17;;
45043;SDS011;30784;48.490;9.688;2023-07-09T03:23:43;8.38;;;2.50;;
45043;SDS011;30784;48.490;9.688;2023-07-09T03:26:08;6.18;;;2.25;;
45043;SDS011;30784;48.490;9.688;2023-07-09T03:28:34;5.85;;;2.10;;
45043;SDS011;30784;48.490;9.688;2023-07-09T03:30:59;5.97;;;2.25;;
45043;SDS011;30784;48.490;9.688;2023-07-09T03:33:25;6.30;;;2.40;;
45043;SDS011;30784;48.490;9.688;2023-07-09T03:35:51;5.82;;;2.17;;
45043;SDS011;30784;48.490;9.688;2023-07-09T03:38:17;6.90;;;2.35;;
45043;SDS011;30784;48.490;9.688;2023-07-09T03:40:43;6.90;;;2.38;;
45043;SDS011;30784;48.490;9.688;2023-07-09T03:43:09;6.47;;;2.33;;
45043;SDS011;30784;48.490;9.688;2023-07-09T03:45:35;6.10;;;2.20;;
45043;SDS011;30784;48.490;9.688;2023-07-09T03:48:02;6.47;;;2.17;;
45043;SDS011;30784;48.490;9.688;2023-07-09T03:50:28;6.75;;;2.63;;
45043;SDS011;30784;48.490;9.688;2023-07-09T03:52:54;5.90;;;2.10;;
45043;SDS011;30784;48.490;9.688;2023-07-09T03:55:19;6.40;;;2.30;;
45043;SDS011;30784;48.490;9.688;2023-07-09T03:57:45;6.82;;;2.15;;
45043;SDS011;30784;48.490;9.688;2023-07-09T04:00:11;6.18;;;2.20;;
45043;SDS011;30784;48.490;9.688;2023-07-09T04:02:38;7.35;;;2.30;;
45043;SDS011;30784;48.490;9.688;2023-07-09T04:05:05;6.05;;;2.10;;
45043;SDS011;30784;48.490;9.688;2023-07-09T04:07:31;6.32;;;2.38;;
45043;SDS011;30784;48.490;9.688;2023-07-09T04:09:57;6.85;;;2.30;;
45043;SDS011;30784;48.490;9.688;2023-07-09T04:12:22;5.72;;;2.00;;
45043;SDS011;30784;48.490;9.688;2023-07-09T04:14:48;6.55;;;2.35;;
45043;SDS011;30784;48.490;9.688;2023-07-09T04:17:13;6.25;;;2.10;;
45043;SDS011;30784;48.490;9.688;2023-07-09T04:19:39;6.47;;;2.15;;
45043;SDS011;30784;48.490;9.688;2023-07-09T04:22:04;6.70;;;2.20;;
45043;SDS011;30784;48.490;9.688;2023-07-09T04:24:30;6.35;;;2.38;;
45043;SDS011;30784;48.490;9.688;2023-07-09T04:26:56;5.45;;;2.00;;
45043;SDS011;30784;48.490;9.688;2023-07-09T04:29:23;7.05;;;2.28;;
45043;SDS011;30784;48.490;9.688;2023-07-09T04:31:48;6.53;;;2.28;;
45043;SDS011;30784;48.490;9.688;2023-07-09T04:34:14;6.68;;;2.22;;
45043;SDS011;30784;48.490;9.688;2023-07-09T04:36:40;6.13;;;2.20;;
45043;SDS011;30784;48.490;9.688;2023-07-09T04:39:05;5.32;;;2.10;;
45043;SDS011;30784;48.490;9.688;2023-07-09T04:41:31;5.95;;;2.38;;
45043;SDS011;30784;48.490;9.688;2023-07-09T04:43:56;5.97;;;2.13;;
45043;SDS011;30784;48.490;9.688;2023-07-09T04:46:22;6.07;;;2.22;;
45043;SDS011;30784;48.490;9.688;2023-07-09T04:48:48;6.28;;;2.35;;
45043;SDS011;30784;48.490;9.688;2023-07-09T04:51:13;7.20;;;2.28;;
45043;SDS011;30784;48.490;9.688;2023-07-09T04:53:39;6.00;;;2.20;;
45043;SDS011;30784;48.490;9.688;2023-07-09T04:56:04;7.35;;;2.40;;
45043;SDS011;30784;48.490;9.688;2023-07-09T04:58:31;6.22;;;2.20;;
45043;SDS011;30784;48.490;9.688;2023-07-09T05:00:57;7.75;;;2.25;;
45043;SDS011;30784;48.490;9.688;2023-07-09T05:03:23;6.35;;;2.35;;
45043;SDS011;30784;48.490;9.688;2023-07-09T05:05:48;7.30;;;2.30;;
45043;SDS011;30784;48.490;9.688;2023-07-09T05:08:14;8.65;;;2.80;;
45043;SDS011;30784;48.490;9.688;2023-07-09T05:10:45;6.95;;;2.58;;
45043;SDS011;30784;48.490;9.688;2023-07-09T05:13:12;7.07;;;2.40;;
45043;SDS011;30784;48.490;9.688;2023-07-09T05:15:41;7.65;;;2.60;;
45043;SDS011;30784;48.490;9.688;2023-07-09T05:18:11;6.22;;;2.58;;
45043;SDS011;30784;48.490;9.688;2023-07-09T05:20:38;8.43;;;2.85;;
45043;SDS011;30784;48.490;9.688;2023-07-09T05:23:05;6.93;;;2.60;;
45043;SDS011;30784;48.490;9.688;2023-07-09T05:25:31;6.75;;;2.55;;
45043;SDS011;30784;48.490;9.688;2023-07-09T05:27:56;7.57;;;2.70;;
45043;SDS011;30784;48.490;9.688;2023-07-09T05:30:22;6.53;;;2.55;;
45043;SDS011;30784;48.490;9.688;2023-07-09T05:32:48;7.72;;;2.55;;
45043;SDS011;30784;48.490;9.688;2023-07-09T05:35:13;7.05;;;2.80;;
45043;SDS011;30784;48.490;9.688;2023-07-09T05:37:39;7.03;;;2.65;;
45043;SDS011;30784;48.490;9.688;2023-07-09T05:40:06;6.93;;;2.70;;
45043;SDS011;30784;48.490;9.688;2023-07-09T05:42:32;5.72;;;2.50;;
45043;SDS011;30784;48.490;9.688;2023-07-09T05:48:20;7.68;;;2.60;;
45043;SDS011;30784;48.490;9.688;2023-07-09T05:50:48;6.68;;;2.60;;
45043;SDS011;30784;48.490;9.688;2023-07-09T05:53:18;6.85;;;2.60;;
45043;SDS011;30784;48.490;9.688;2023-07-09T05:55:43;6.35;;;2.67;;
45043;SDS011;30784;48.490;9.688;2023-07-09T05:58:09;7.55;;;2.90;;
45043;SDS011;30784;48.490;9.688;2023-07-09T06:00:34;7.57;;;2.72;;
45043;SDS011;30784;48.490;9.688;2023-07-09T06:03:02;8.02;;;3.00;;
45043;SDS011;30784;48.490;9.688;2023-07-09T06:08:01;5.65;;;2.25;;
45043;SDS011;30784;48.490;9.688;2023-07-09T06:10:26;6.60;;;2.50;;
45043;SDS011;30784;48.490;9.688;2023-07-09T06:12:52;6.70;;;2.83;;
45043;SDS011;30784;48.490;9.688;2023-07-09T06:15:17;7.78;;;2.30;;
45043;SDS011;30784;48.490;9.688;2023-07-09T06:17:43;7.20;;;2.60;;
45043;SDS011;30784;48.490;9.688;2023-07-09T06:20:09;7.38;;;2.60;;
45043;SDS011;30784;48.490;9.688;2023-07-09T06:22:34;6.68;;;2.35;;
45043;SDS011;30784;48.490;9.688;2023-07-09T06:25:00;6.72;;;2.38;;
45043;SDS011;30784;48.490;9.688;2023-07-09T06:27:26;6.28;;;2.45;;
45043;SDS011;30784;48.490;9.688;2023-07-09T06:29:51;6.00;;;2.30;;
45043;SDS011;30784;48.490;9.688;2023-07-09T06:32:17;7.25;;;2.33;;
45043;SDS011;30784;48.490;9.688;2023-07-09T06:34:43;8.60;;;2.53;;
45043;SDS011;30784;48.490;9.688;2023-07-09T06:37:08;7.30;;;2.70;;
45043;SDS011;30784;48.490;9.688;2023-07-09T06:39:34;6.43;;;2.47;;
45043;SDS011;30784;48.490;9.688;2023-07-09T06:41:59;7.90;;;2.50;;
45043;SDS011;30784;48.490;9.688;2023-07-09T06:44:25;6.25;;;2.50;;
45043;SDS011;30784;48.490;9.688;2023-07-09T06:46:51;6.82;;;2.50;;
45043;SDS011;30784;48.490;9.688;2023-07-09T06:49:16;7.22;;;2.80;;
45043;SDS011;30784;48.490;9.688;2023-07-09T06:51:42;6.68;;;2.67;;
45043;SDS011;30784;48.490;9.688;2023-07-09T06:54:08;6.07;;;2.30;;
45043;SDS011;30784;48.490;9.688;2023-07-09T06:56:34;6.75;;;2.60;;
45043;SDS011;30784;48.490;9.688;2023-07-09T06:58:59;6.13;;;2.40;;
45043;SDS011;30784;48.490;9.688;2023-07-09T07:01:25;7.38;;;2.80;;
45043;SDS011;30784;48.490;9.688;2023-07-09T07:03:50;7.78;;;2.58;;
45043;SDS011;30784;48.490;9.688;2023-07-09T07:06:16;6.40;;;2.40;;
45043;SDS011;30784;48.490;9.688;2023-07-09T07:08:42;6.78;;;2.67;;
45043;SDS011;30784;48.490;9.688;2023-07-09T07:11:07;7.10;;;2.50;;
45043;SDS011;30784;48.490;9.688;2023-07-09T07:13:34;6.72;;;2.45;;
45043;SDS011;30784;48.490;9.688;2023-07-09T07:16:04;6.72;;;2.50;;
45043;SDS011;30784;48.490;9.688;2023-07-09T07:18:31;7.95;;;2.40;;
45043;SDS011;30784;48.490;9.688;2023-07-09T07:20:57;6.15;;;2.38;;
45043;SDS011;30784;48.490;9.688;2023-07-09T07:23:22;6.18;;;2.40;;
45043;SDS011;30784;48.490;9.688;2023-07-09T07:25:49;7.32;;;2.25;;
45043;SDS011;30784;48.490;9.688;2023-07-09T07:28:15;6.90;;;2.40;;
45043;SDS011;30784;48.490;9.688;2023-07-09T07:30:42;5.53;;;2.05;;
45043;SDS011;30784;48.490;9.688;2023-07-09T07:33:08;6.57;;;2.45;;
45043;SDS011;30784;48.490;9.688;2023-07-09T07:38:55;6.30;;;2.33;;
45043;SDS011;30784;48.490;9.688;2023-07-09T07:41:21;6.30;;;2.42;;
45043;SDS011;30784;48.490;9.688;2023-07-09T07:43:46;5.82;;;2.35;;
45043;SDS011;30784;48.490;9.688;2023-07-09T07:46:12;6.85;;;2.45;;
45043;SDS011;30784;48.490;9.688;2023-07-09T07:48:37;6.25;;;2.30;;
45043;SDS011;30784;48.490;9.688;2023-07-09T07:51:03;5.90;;;2.20;;
45043;SDS011;30784;48.490;9.688;2023-07-09T07:53:29;6.18;;;2.45;;
45043;SDS011;30784;48.490;9.688;2023-07-09T07:55:56;5.90;;;2.40;;
45043;SDS011;30784;48.490;9.688;2023-07-09T07:58:22;6.30;;;2.17;;
45043;SDS011;30784;48.490;9.688;2023-07-09T08:00:48;6.60;;;2.25;;
45043;SDS011;30784;48.490;9.688;2023-07-09T08:03:13;6.20;;;2.63;;
45043;SDS011;30784;48.490;9.688;2023-07-09T08:05:39;6.07;;;2.10;;
45043;SDS011;30784;48.490;9.688;2023-07-09T08:08:04;6.15;;;2.20;;
45043;SDS011;30784;48.490;9.688;2023-07-09T08:10:30;7.30;;;2.53;;
45043;SDS011;30784;48.490;9.688;2023-07-09T08:12:56;5.85;;;2.30;;
45043;SDS011;30784;48.490;9.688;2023-07-09T08:18:43;7.93;;;2.63;;
45043;SDS011;30784;48.490;9.688;2023-07-09T08:21:09;6.60;;;2.20;;
45043;SDS011;30784;48.490;9.688;2023-07-09T08:23:35;8.00;;;2.10;;
45043;SDS011;30784;48.490;9.688;2023-07-09T08:26:01;6.10;;;2.25;;
45043;SDS011;30784;48.490;9.688;2023-07-09T08:28:28;6.68;;;2.38;;
45043;SDS011;30784;48.490;9.688;2023-07-09T08:30:55;6.18;;;2.28;;
45043;SDS011;30784;48.490;9.688;2023-07-09T08:33:21;5.85;;;2.35;;
45043;SDS011;30784;48.490;9.688;2023-07-09T08:35:51;6.82;;;2.70;;
45043;SDS011;30784;48.490;9.688;2023-07-09T08:38:18;6.70;;;2.40;;
45043;SDS011;30784;48.490;9.688;2023-07-09T08:46:30;11.23;;;2.00;;
45043;SDS011;30784;48.490;9.688;2023-07-09T08:49:19;5.90;;;2.20;;
45043;SDS011;30784;48.490;9.688;2023-07-09T08:51:48;6.63;;;2.50;;
45043;SDS011;30784;48.490;9.688;2023-07-09T08:54:22;5.72;;;2.13;;
45043;SDS011;30784;48.490;9.688;2023-07-09T08:56:52;6.35;;;2.42;;
45043;SDS011;30784;48.490;9.688;2023-07-09T08:59:20;8.25;;;2.78;;
45043;SDS011;30784;48.490;9.688;2023-07-09T09:01:50;6.20;;;2.38;;
45043;SDS011;30784;48.490;9.688;2023-07-09T09:09:57;8.98;;;2.70;;
45043;SDS011;30784;48.490;9.688;2023-07-09T09:12:27;6.88;;;2.85;;
45043;SDS011;30784;48.490;9.688;2023-07-09T09:15:18;7.88;;;3.55;;
45043;SDS011;30784;48.490;9.688;2023-07-09T09:17:45;8.05;;;3.40;;
45043;SDS011;30784;48.490;9.688;2023-07-09T09:20:16;6.60;;;2.63;;
45043;SDS011;30784;48.490;9.688;2023-07-09T09:25:35;6.65;;;2.60;;
45043;SDS011;30784;48.490;9.688;2023-07-09T09:28:05;7.18;;;2.45;;
45043;SDS011;30784;48.490;9.688;2023-07-09T09:30:30;6.57;;;2.65;;
45043;SDS011;30784;48.490;9.688;2023-07-09T09:32:58;5.85;;;2.30;;
45043;SDS011;30784;48.490;9.688;2023-07-09T09:35:42;6.35;;;2.50;;
45043;SDS011;30784;48.490;9.688;2023-07-09T09:38:16;8.80;;;2.60;;
45043;SDS011;30784;48.490;9.688;2023-07-09T09:40:43;6.63;;;2.55;;
45043;SDS011;30784;48.490;9.688;2023-07-09T09:43:16;7.03;;;2.90;;
45043;SDS011;30784;48.490;9.688;2023-07-09T09:45:44;6.40;;;2.50;;
45043;SDS011;30784;48.490;9.688;2023-07-09T09:48:16;6.88;;;2.90;;
45043;SDS011;30784;48.490;9.688;2023-07-09T09:50:45;7.13;;;2.60;;
45043;SDS011;30784;48.490;9.688;2023-07-09T09:53:17;8.27;;;3.05;;
45043;SDS011;30784;48.490;9.688;2023-07-09T09:55:47;6.88;;;2.80;;
45043;SDS011;30784;48.490;9.688;2023-07-09T09:58:15;6.90;;;3.33;;
45043;SDS011;30784;48.490;9.688;2023-07-09T10:00:46;8.45;;;3.38;;
45043;SDS011;30784;48.490;9.688;2023-07-09T10:03:14;7.63;;;3.78;;
45043;SDS011;30784;48.490;9.688;2023-07-09T10:05:42;7.20;;;3.40;;
45043;SDS011;30784;48.490;9.688;2023-07-09T10:11:01;5.80;;;2.45;;
45043;SDS011;30784;48.490;9.688;2023-07-09T10:13:48;6.60;;;2.47;;
45043;SDS011;30784;48.490;9.688;2023-07-09T10:16:21;7.78;;;2.80;;
45043;SDS011;30784;48.490;9.688;2023-07-09T10:24:25;6.60;;;2.58;;
45043;SDS011;30784;48.490;9.688;2023-07-09T10:27:12;5.85;;;2.30;;
45043;SDS011;30784;48.490;9.688;2023-07-09T10:29:55;6.85;;;2.72;;
45043;SDS011;30784;48.490;9.688;2023-07-09T10:32:47;6.90;;;2.60;;
45043;SDS011;30784;48.490;9.688;2023-07-09T10:35:37;8.68;;;2.95;;
45043;SDS011;30784;48.490;9.688;2023-07-09T10:39:00;8.32;;;2.80;;
45043;SDS011;30784;48.490;9.688;2023-07-09T10:41:04;6.97;;;2.80;;
45043;SDS011;30784;48.490;9.688;2023-07-09T10:43:43;7.75;;;2.70;;
45043;SDS011;30784;48.490;9.688;2023-07-09T10:46:24;6.32;;;2.80;;
45043;SDS011;30784;48.490;9.688;2023-07-09T10:51:38;6.53;;;2.58;;
45043;SDS011;30784;48.490;9.688;2023-07-09T10:56:56;6.40;;;2.70;;
45043;SDS011;30784;48.490;9.688;2023-07-09T10:59:32;7.53;;;2.97;;
45043;SDS011;30784;48.490;9.688;2023-07-09T11:02:08;6.78;;;2.95;;
45043;SDS011;30784;48.490;9.688;2023-07-09T11:04:44;6.18;;;3.03;;
45043;SDS011;30784;48.490;9.688;2023-07-09T11:07:13;7.33;;;3.00;;
45043;SDS011;30784;48.490;9.688;2023-07-09T11:09:44;6.60;;;2.75;;
45043;SDS011;30784;48.490;9.688;2023-07-09T11:12:14;6.35;;;2.63;;
45043;SDS011;30784;48.490;9.688;2023-07-09T11:17:16;8.02;;;3.30;;
45043;SDS011;30784;48.490;9.688;2023-07-09T11:19:48;9.00;;;2.97;;
45043;SDS011;30784;48.490;9.688;2023-07-09T11:22:40;7.53;;;3.13;;
45043;SDS011;30784;48.490;9.688;2023-07-09T11:25:10;6.60;;;2.65;;
45043;SDS011;30784;48.490;9.688;2023-07-09T11:27:51;7.72;;;3.28;;
45043;SDS011;30784;48.490;9.688;2023-07-09T11:30:25;8.13;;;3.22;;
45043;SDS011;30784;48.490;9.688;2023-07-09T11:32:56;7.80;;;3.33;;
45043;SDS011;30784;48.490;9.688;2023-07-09T11:35:27;8.25;;;3.40;;
45043;SDS011;30784;48.490;9.688;2023-07-09T11:37:54;7.60;;;3.00;;
45043;SDS011;30784;48.490;9.688;2023-07-09T11:40:21;7.78;;;3.22;;
45043;SDS011;30784;48.490;9.688;2023-07-09T11:45:17;6.82;;;2.70;;
45043;SDS011;30784;48.490;9.688;2023-07-09T11:47:59;7.22;;;3.15;;
45043;SDS011;30784;48.490;9.688;2023-07-09T11:50:48;7.32;;;3.03;;
45043;SDS011;30784;48.490;9.688;2023-07-09T11:55:53;8.55;;;3.20;;
45043;SDS011;30784;48.490;9.688;2023-07-09T11:58:18;7.85;;;3.10;;
45043;SDS011;30784;48.490;9.688;2023-07-09T12:00:48;6.97;;;2.95;;
45043;SDS011;30784;48.490;9.688;2023-07-09T12:03:27;7.25;;;2.72;;
45043;SDS011;30784;48.490;9.688;2023-07-09T12:06:05;7.47;;;2.88;;
45043;SDS011;30784;48.490;9.688;2023-07-09T12:08:41;7.30;;;2.90;;
45043;SDS011;30784;48.490;9.688;2023-07-09T12:13:54;7.35;;;3.00;;
45043;SDS011;30784;48.490;9.688;2023-07-09T12:16:28;7.80;;;2.90;;
45043;SDS011;30784;48.490;9.688;2023-07-09T12:18:55;8.93;;;3.40;;
45043;SDS011;30784;48.490;9.688;2023-07-09T12:21:23;9.30;;;3.58;;
45043;SDS011;30784;48.490;9.688;2023-07-09T12:23:50;8.15;;;3.13;;
45043;SDS011;30784;48.490;9.688;2023-07-09T12:26:16;7.55;;;3.20;;
45043;SDS011;30784;48.490;9.688;2023-07-09T12:28:49;8.93;;;3.17;;
45043;SDS011;30784;48.490;9.688;2023-07-09T12:31:20;7.13;;;2.95;;
45043;SDS011;30784;48.490;9.688;2023-07-09T12:33:52;7.57;;;3.10;;
45043;SDS011;30784;48.490;9.688;2023-07-09T12:36:19;8.02;;;3.47;;
45043;SDS011;30784;48.490;9.688;2023-07-09T12:38:45;8.77;;;3.08;;
45043;SDS011;30784;48.490;9.688;2023-07-09T12:41:24;6.72;;;2.88;;
45043;SDS011;30784;48.490;9.688;2023-07-09T12:44:04;7.32;;;3.25;;
45043;SDS011;30784;48.490;9.688;2023-07-09T12:46:30;8.48;;;3.53;;
45043;SDS011;30784;48.490;9.688;2023-07-09T12:48:56;9.73;;;3.25;;
45043;SDS011;30784;48.490;9.688;2023-07-09T12:51:23;8.13;;;3.60;;
45043;SDS011;30784;48.490;9.688;2023-07-09T12:54:11;8.70;;;3.15;;
45043;SDS011;30784;48.490;9.688;2023-07-09T12:56:40;8.63;;;3.33;;
45043;SDS011;30784;48.490;9.688;2023-07-09T12:59:22;7.75;;;3.40;;
45043;SDS011;30784;48.490;9.688;2023-07-09T13:04:20;6.93;;;3.00;;
45043;SDS011;30784;48.490;9.688;2023-07-09T13:06:46;7.10;;;2.97;;
45043;SDS011;30784;48.490;9.688;2023-07-09T13:09:18;8.35;;;3.03;;
45043;SDS011;30784;48.490;9.688;2023-07-09T13:11:46;8.73;;;3.42;;
45043;SDS011;30784;48.490;9.688;2023-07-09T13:14:23;8.85;;;3.33;;
45043;SDS011;30784;48.490;9.688;2023-07-09T13:16:50;7.70;;;3.08;;
45043;SDS011;30784;48.490;9.688;2023-07-09T13:19:16;8.55;;;3.50;;
45043;SDS011;30784;48.490;9.688;2023-07-09T13:21:42;6.93;;;2.88;;
45043;SDS011;30784;48.490;9.688;2023-07-09T13:24:19;8.52;;;3.47;;
45043;SDS011;30784;48.490;9.688;2023-07-09T13:26:47;9.45;;;3.05;;
45043;SDS011;30784;48.490;9.688;2023-07-09T13:29:14;8.18;;;3.40;;
45043;SDS011;30784;48.490;9.688;2023-07-09T13:31:42;7.00;;;2.90;;
45043;SDS011;30784;48.490;9.688;2023-07-09T13:34:21;7.50;;;3.05;;
45043;SDS011;30784;48.490;9.688;2023-07-09T13:36:50;8.32;;;3.28;;
45043;SDS011;30784;48.490;9.688;2023-07-09T13:39:18;12.32;;;3.90;;
45043;SDS011;30784;48.490;9.688;2023-07-09T13:41:45;9.93;;;3.60;;
45043;SDS011;30784;48.490;9.688;2023-07-09T13:44:13;7.22;;;3.13;;
45043;SDS011;30784;48.490;9.688;2023-07-09T13:46:40;8.15;;;3.10;;
45043;SDS011;30784;48.490;9.688;2023-07-09T13:49:12;9.07;;;3.10;;
45043;SDS011;30784;48.490;9.688;2023-07-09T13:51:39;7.93;;;3.25;;
45043;SDS011;30784;48.490;9.688;2023-07-09T13:54:29;8.40;;;3.30;;
45043;SDS011;30784;48.490;9.688;2023-07-09T13:57:00;7.97;;;3.40;;
45043;SDS011;30784;48.490;9.688;2023-07-09T13:59:27;7.53;;;3.20;;
45043;SDS011;30784;48.490;9.688;2023-07-09T14:01:54;9.15;;;3.17;;
45043;SDS011;30784;48.490;9.688;2023-07-09T14:04:21;7.55;;;3.28;;
45043;SDS011;30784;48.490;9.688;2023-07-09T14:06:47;9.00;;;3.63;;
45043;SDS011;30784;48.490;9.688;2023-07-09T14:09:13;9.63;;;3.28;;
45043;SDS011;30784;48.490;9.688;2023-07-09T14:11:50;7.63;;;3.40;;
45043;SDS011;30784;48.490;9.688;2023-07-09T14:16:49;8.75;;;3.40;;
45043;SDS011;30784;48.490;9.688;2023-07-09T14:19:17;8.10;;;3.10;;
45043;SDS011;30784;48.490;9.688;2023-07-09T14:21:45;9.10;;;3.30;;
45043;SDS011;30784;48.490;9.688;2023-07-09T14:24:22;9.07;;;3.50;;
45043;SDS011;30784;48.490;9.688;2023-07-09T14:26:53;9.90;;;3.63;;
45043;SDS011;30784;48.490;9.688;2023-07-09T14:29:20;9.50;;;3.70;;
45043;SDS011;30784;48.490;9.688;2023-07-09T14:31:46;7.65;;;3.28;;
45043;SDS011;30784;48.490;9.688;2023-07-09T14:34:20;7.90;;;3.03;;
45043;SDS011;30784;48.490;9.688;2023-07-09T14:36:52;9.73;;;3.30;;
45043;SDS011;30784;48.490;9.688;2023-07-09T14:39:20;8.25;;;3.38;;
45043;SDS011;30784;48.490;9.688;2023-07-09T14:41:46;12.00;;;3.72;;
45043;SDS011;30784;48.490;9.688;2023-07-09T14:46:52;9.52;;;3.40;;
45043;SDS011;30784;48.490;9.688;2023-07-09T14:49:19;8.98;;;3.85;;
45043;SDS011;30784;48.490;9.688;2023-07-09T14:51:46;8.45;;;3.70;;
45043;SDS011;30784;48.490;9.688;2023-07-09T14:56:48;8.45;;;3.58;;
45043;SDS011;30784;48.490;9.688;2023-07-09T14:59:15;11.32;;;3.90;;
45043;SDS011;30784;48.490;9.688;2023-07-09T15:01:40;7.78;;;3.58;;
45043;SDS011;30784;48.490;9.688;2023-07-09T15:06:54;8.27;;;3.30;;
45043;SDS011;30784;48.490;9.688;2023-07-09T15:09:24;8.65;;;3.78;;
45043;SDS011;30784;48.490;9.688;2023-07-09T15:11:51;7.63;;;3.40;;
45043;SDS011;30784;48.490;9.688;2023-07-09T15:14:20;8.27;;;3.50;;
45043;SDS011;30784;48.490;9.688;2023-07-09T15:16:46;8.27;;;3.47;;
45043;SDS011;30784;48.490;9.688;2023-07-09T15:19:14;8.88;;;3.70;;
45043;SDS011;30784;48.490;9.688;2023-07-09T15:21:41;7.75;;;3.22;;
45043;SDS011;30784;48.490;9.688;2023-07-09T15:26:53;9.68;;;3.75;;
45043;SDS011;30784;48.490;9.688;2023-07-09T15:29:20;7.65;;;3.50;;
45043;SDS011;30784;48.490;9.688;2023-07-09T15:31:46;7.68;;;3.40;;
45043;SDS011;30784;48.490;9.688;2023-07-09T15:34:12;8.45;;;3.20;;
45043;SDS011;30784;48.490;9.688;2023-07-09T15:36:39;8.75;;;3.47;;
45043;SDS011;30784;48.490;9.688;2023-07-09T15:39:10;9.50;;;3.60;;
45043;SDS011;30784;48.490;9.688;2023-07-09T15:41:37;8.32;;;3.40;;
45043;SDS011;30784;48.490;9.688;2023-07-09T15:44:03;7.47;;;3.42;;
45043;SDS011;30784;48.490;9.688;2023-07-09T15:46:29;8.02;;;3.30;;
45043;SDS011;30784;48.490;9.688;2023-07-09T15:48:54;7.32;;;3.03;;
45043;SDS011;30784;48.490;9.688;2023-07-09T15:51:21;7.90;;;2.90;;
45043;SDS011;30784;48.490;9.688;2023-07-09T15:53:46;8.73;;;3.30;;
45043;SDS011;30784;48.490;9.688;2023-07-09T15:56:15;8.05;;;3.17;;
45043;SDS011;30784;48.490;9.688;2023-07-09T15:58:44;8.05;;;3.40;;
45043;SDS011;30784;48.490;9.688;2023-07-09T16:01:11;6.97;;;2.92;;
45043;SDS011;30784;48.490;9.688;2023-07-09T16:03:38;7.85;;;2.90;;